createdAt,value
2019-03-21T00:00:04.830Z,96.03
2019-03-21T00:01:04.823Z,95.92
2019-03-21T00:02:04.801Z,96.13
2019-03-21T00:03:04.864Z,95.82
2019-03-21T00:04:05.811Z,95.82
2019-03-21T00:05:04.809Z,95.82
2019-03-21T00:06:04.759Z,95.61
2019-03-21T00:07:04.748Z,95.50
2019-03-21T00:08:04.740Z,95.61
2019-03-21T00:09:04.727Z,95.29
2019-03-21T00:10:04.727Z,95.29
2019-03-21T00:11:04.740Z,95.19
2019-03-21T00:12:04.689Z,95.29
2019-03-21T00:13:04.678Z,95.29
2019-03-21T00:14:07.184Z,95.50
2019-03-21T00:15:04.773Z,95.29
2019-03-21T00:16:04.646Z,95.50
2019-03-21T00:17:04.677Z,95.29
2019-03-21T00:18:04.629Z,95.29
2019-03-21T00:19:04.620Z,95.50
2019-03-21T00:20:04.599Z,95.50
2019-03-21T00:21:04.599Z,95.50
2019-03-21T00:22:04.586Z,95.61
2019-03-21T00:23:04.584Z,95.61
2019-03-21T00:24:04.568Z,95.40
2019-03-21T00:25:04.667Z,94.98
2019-03-21T00:26:05.271Z,95.72
2019-03-21T00:27:05.249Z,95.61
2019-03-21T00:28:04.766Z,95.09
2019-03-21T00:29:04.559Z,95.40
2019-03-21T00:30:16.831Z,95.40
2019-03-21T00:31:04.496Z,95.61
2019-03-21T00:32:04.474Z,95.40
2019-03-21T00:33:04.483Z,95.72
2019-03-21T00:34:04.495Z,95.40
2019-03-21T00:35:04.473Z,95.65
2019-03-21T00:36:04.438Z,95.19
2019-03-21T00:37:04.468Z,95.29
2019-03-21T00:38:04.412Z,95.09
2019-03-21T00:39:04.402Z,94.98
2019-03-21T00:40:04.416Z,95.29
2019-03-21T00:41:04.375Z,95.61
2019-03-21T00:42:04.360Z,95.19
2019-03-21T00:43:04.356Z,94.88
2019-03-21T00:44:04.340Z,94.67
2019-03-21T00:45:04.349Z,95.72
2019-03-21T00:46:04.350Z,95.61
2019-03-21T00:47:04.443Z,94.67
2019-03-21T00:48:04.339Z,94.98
2019-03-21T00:49:04.319Z,94.88
2019-03-21T00:50:04.295Z,94.78
2019-03-21T00:51:04.259Z,94.98
2019-03-21T00:52:04.255Z,94.88
2019-03-21T00:53:04.241Z,95.09
2019-03-21T00:54:04.230Z,94.67
2019-03-21T00:55:04.221Z,95.50
2019-03-21T00:56:04.248Z,94.67
2019-03-21T00:57:04.202Z,94.98
2019-03-21T00:58:04.186Z,95.19
2019-03-21T00:59:04.203Z,95.34
2019-03-21T01:00:04.163Z,95.19
2019-03-21T01:01:17.328Z,94.98
2019-03-21T01:02:04.144Z,95.50
2019-03-21T01:03:04.142Z,95.50
2019-03-21T01:04:04.126Z,95.09
2019-03-21T01:05:04.137Z,95.19
2019-03-21T01:06:04.154Z,95.34
2019-03-21T01:07:04.089Z,95.55
2019-03-21T01:08:04.081Z,95.40
2019-03-21T01:09:04.072Z,94.82
2019-03-21T01:10:04.055Z,95.86
2019-03-21T01:11:04.097Z,95.65
2019-03-21T01:12:04.315Z,95.55
2019-03-21T01:13:04.026Z,95.03
2019-03-21T01:14:04.009Z,95.13
2019-03-21T01:15:04.012Z,95.13
2019-03-21T01:16:03.990Z,95.23
2019-03-21T01:17:03.981Z,95.49
2019-03-21T01:18:03.979Z,95.38
2019-03-21T01:19:03.967Z,95.34
2019-03-21T01:20:03.945Z,95.34
2019-03-21T01:21:03.946Z,95.38
2019-03-21T01:22:03.923Z,95.13
2019-03-21T01:23:03.956Z,95.07
2019-03-21T01:24:03.904Z,95.07
2019-03-21T01:25:03.893Z,95.70
2019-03-21T01:26:03.881Z,95.49
2019-03-21T01:27:03.875Z,95.70
2019-03-21T01:28:03.858Z,95.59
2019-03-21T01:29:03.881Z,95.43
2019-03-21T01:30:03.841Z,95.43
2019-03-21T01:31:03.833Z,96.26
2019-03-21T01:32:14.108Z,96.05
2019-03-21T01:33:03.808Z,96.47
2019-03-21T01:34:03.799Z,96.83
2019-03-21T01:35:03.827Z,96.58
2019-03-21T01:36:03.786Z,96.72
2019-03-21T01:37:03.765Z,96.72
2019-03-21T01:38:03.755Z,96.77
2019-03-21T01:39:03.749Z,96.98
2019-03-21T01:40:03.745Z,96.88
2019-03-21T01:41:03.805Z,96.98
2019-03-21T01:42:03.715Z,97.08
2019-03-21T01:43:03.706Z,97.45
2019-03-21T01:44:03.728Z,97.19
2019-03-21T01:45:03.697Z,96.88
2019-03-21T01:46:03.705Z,97.50
2019-03-21T01:47:03.702Z,97.39
2019-03-21T01:48:03.660Z,97.29
2019-03-21T01:49:03.638Z,97.29
2019-03-21T01:50:03.643Z,96.92
2019-03-21T01:51:03.620Z,97.19
2019-03-21T01:52:03.603Z,97.39
2019-03-21T01:53:03.623Z,97.44
2019-03-21T01:54:03.596Z,97.44
2019-03-21T01:55:03.576Z,97.71
2019-03-21T01:56:03.574Z,97.65
2019-03-21T01:57:03.622Z,97.75
2019-03-21T01:58:03.544Z,98.02
2019-03-21T01:59:03.545Z,97.75
2019-03-21T02:00:03.542Z,97.75
2019-03-21T02:01:03.512Z,97.75
2019-03-21T02:02:03.505Z,98.28
2019-03-21T02:03:16.407Z,98.07
2019-03-21T02:04:03.491Z,97.96
2019-03-21T02:05:03.489Z,98.11
2019-03-21T02:06:03.479Z,98.22
2019-03-21T02:07:03.488Z,98.22
2019-03-21T02:08:03.441Z,98.54
2019-03-21T02:09:03.437Z,98.74
2019-03-21T02:10:03.426Z,98.43
2019-03-21T02:11:03.423Z,98.54
2019-03-21T02:12:03.412Z,98.32
2019-03-21T02:13:03.442Z,99.05
2019-03-21T02:14:03.404Z,98.64
2019-03-21T02:15:03.387Z,98.74
2019-03-21T02:16:03.376Z,98.74
2019-03-21T02:17:03.397Z,98.54
2019-03-21T02:18:03.361Z,98.64
2019-03-21T02:19:03.322Z,98.64
2019-03-21T02:20:03.355Z,98.64
2019-03-21T02:21:03.298Z,98.64
2019-03-21T02:22:03.288Z,98.64
2019-03-21T02:23:03.276Z,98.74
2019-03-21T02:24:03.267Z,98.54
2019-03-21T02:25:03.259Z,98.22
2019-03-21T02:26:03.259Z,98.74
2019-03-21T02:27:03.242Z,99.05
2019-03-21T02:28:03.240Z,98.64
2019-03-21T02:29:03.218Z,99.37
2019-03-21T02:30:03.206Z,98.85
2019-03-21T02:31:03.231Z,98.74
2019-03-21T02:32:03.181Z,98.64
2019-03-21T02:33:03.189Z,98.68
2019-03-21T02:34:15.750Z,98.64
2019-03-21T02:35:03.153Z,99.00
2019-03-21T02:36:03.182Z,99.31
2019-03-21T02:37:03.136Z,98.68
2019-03-21T02:38:03.237Z,98.95
2019-03-21T02:39:03.157Z,98.79
2019-03-21T02:40:03.140Z,98.74
2019-03-21T02:41:03.088Z,98.74
2019-03-21T02:42:03.115Z,98.74
2019-03-21T02:43:03.060Z,98.74
2019-03-21T02:44:03.055Z,98.74
2019-03-21T02:45:09.080Z,98.54
2019-03-21T02:46:04.063Z,98.47
2019-03-21T02:47:03.040Z,98.89
2019-03-21T02:48:03.053Z,98.89
2019-03-21T02:49:03.001Z,98.79
2019-03-21T02:50:02.991Z,98.43
2019-03-21T02:51:02.984Z,98.68
2019-03-21T02:52:02.969Z,98.47
2019-03-21T02:53:02.950Z,98.79
2019-03-21T02:54:02.989Z,98.47
2019-03-21T02:55:02.951Z,98.68
2019-03-21T02:56:02.923Z,98.79
2019-03-21T02:57:02.917Z,98.74
2019-03-21T02:58:02.901Z,98.68
2019-03-21T02:59:02.906Z,98.47
2019-03-21T03:00:02.930Z,98.47
2019-03-21T03:01:02.873Z,98.47
2019-03-21T03:02:02.943Z,98.54
2019-03-21T03:03:02.949Z,98.43
2019-03-21T03:04:02.840Z,98.95
2019-03-21T03:05:16.435Z,98.58
2019-03-21T03:06:02.829Z,98.26
2019-03-21T03:07:02.831Z,98.94
2019-03-21T03:08:02.800Z,98.52
2019-03-21T03:09:02.785Z,98.58
2019-03-21T03:10:02.820Z,98.89
2019-03-21T03:11:02.790Z,98.89
2019-03-21T03:12:02.770Z,98.89
2019-03-21T03:13:02.744Z,98.47
2019-03-21T03:14:04.495Z,98.26
2019-03-21T03:15:02.743Z,98.47
2019-03-21T03:16:02.722Z,98.26
2019-03-21T03:17:02.709Z,98.52
2019-03-21T03:18:02.695Z,98.52
2019-03-21T03:19:02.702Z,98.47
2019-03-21T03:20:02.665Z,98.47
2019-03-21T03:21:02.695Z,98.47
2019-03-21T03:22:02.691Z,98.47
2019-03-21T03:23:02.635Z,98.58
2019-03-21T03:24:02.717Z,98.58
2019-03-21T03:25:02.698Z,98.89
2019-03-21T03:26:02.643Z,98.79
2019-03-21T03:27:02.609Z,98.26
2019-03-21T03:28:02.628Z,98.62
2019-03-21T03:29:02.568Z,98.62
2019-03-21T03:30:02.594Z,99.00
2019-03-21T03:31:02.552Z,98.62
2019-03-21T03:32:02.538Z,98.68
2019-03-21T03:33:02.527Z,98.05
2019-03-21T03:34:02.528Z,98.37
2019-03-21T03:35:02.506Z,98.37
2019-03-21T03:36:15.549Z,97.85
2019-03-21T03:37:02.502Z,98.37
2019-03-21T03:38:02.481Z,98.16
2019-03-21T03:39:02.502Z,98.37
2019-03-21T03:40:02.450Z,98.16
2019-03-21T03:41:02.460Z,97.63
2019-03-21T03:42:02.444Z,97.78
2019-03-21T03:43:02.419Z,97.85
2019-03-21T03:44:02.418Z,97.85
2019-03-21T03:45:02.451Z,97.95
2019-03-21T03:46:02.391Z,98.16
2019-03-21T03:47:02.511Z,98.26
2019-03-21T03:48:02.369Z,97.95
2019-03-21T03:49:02.921Z,97.53
2019-03-21T03:50:02.365Z,97.63
2019-03-21T03:51:02.396Z,97.42
2019-03-21T03:52:02.326Z,97.42
2019-03-21T03:53:02.315Z,97.53
2019-03-21T03:54:02.316Z,97.42
2019-03-21T03:55:02.299Z,97.38
2019-03-21T03:56:02.297Z,97.38
2019-03-21T03:57:02.278Z,97.17
2019-03-21T03:58:02.282Z,96.75
2019-03-21T03:59:02.253Z,96.75
2019-03-21T04:00:02.235Z,96.96
2019-03-21T04:01:02.221Z,97.06
2019-03-21T04:02:02.275Z,97.17
2019-03-21T04:03:02.210Z,97.22
2019-03-21T04:04:02.205Z,96.86
2019-03-21T04:05:02.289Z,96.90
2019-03-21T04:06:02.191Z,96.96
2019-03-21T04:07:15.480Z,97.28
2019-03-21T04:08:02.156Z,97.00
2019-03-21T04:09:02.184Z,97.11
2019-03-21T04:10:02.205Z,96.90
2019-03-21T04:11:02.961Z,97.49
2019-03-21T04:12:02.153Z,97.06
2019-03-21T04:13:02.127Z,97.00
2019-03-21T04:14:02.087Z,97.11
2019-03-21T04:15:02.077Z,97.32
2019-03-21T04:16:02.068Z,96.86
2019-03-21T04:17:02.055Z,96.65
2019-03-21T04:18:02.041Z,95.92
2019-03-21T04:19:02.077Z,96.23
2019-03-21T04:20:02.021Z,96.23
2019-03-21T04:21:02.019Z,96.55
2019-03-21T04:22:02.002Z,96.12
2019-03-21T04:23:02.000Z,96.37
2019-03-21T04:24:01.982Z,96.75
2019-03-21T04:25:02.091Z,96.12
2019-03-21T04:26:01.966Z,96.65
2019-03-21T04:27:01.945Z,96.37
2019-03-21T04:28:01.939Z,96.80
2019-03-21T04:29:01.929Z,96.69
2019-03-21T04:30:01.958Z,96.33
2019-03-21T04:31:01.913Z,96.33
2019-03-21T04:32:01.902Z,96.23
2019-03-21T04:33:01.966Z,96.75
2019-03-21T04:34:01.914Z,96.48
2019-03-21T04:35:01.869Z,96.33
2019-03-21T04:36:01.872Z,96.23
2019-03-21T04:37:01.847Z,96.33
2019-03-21T04:38:14.307Z,96.17
2019-03-21T04:39:01.835Z,96.23
2019-03-21T04:40:01.844Z,96.12
2019-03-21T04:41:01.813Z,96.33
2019-03-21T04:42:01.837Z,96.12
2019-03-21T04:43:01.793Z,95.60
2019-03-21T04:44:01.764Z,95.29
2019-03-21T04:45:01.759Z,95.92
2019-03-21T04:46:03.688Z,95.03
2019-03-21T04:47:01.732Z,95.35
2019-03-21T04:48:01.747Z,95.25
2019-03-21T04:49:01.711Z,95.25
2019-03-21T04:50:01.697Z,95.25
2019-03-21T04:51:01.686Z,95.45
2019-03-21T04:52:01.682Z,95.39
2019-03-21T04:53:01.709Z,95.35
2019-03-21T04:54:01.706Z,95.72
2019-03-21T04:55:01.715Z,93.76
2019-03-21T04:56:01.640Z,92.52
2019-03-21T04:57:01.648Z,88.43
2019-03-21T04:58:01.612Z,86.43
2019-03-21T04:59:01.626Z,83.51
2019-03-21T05:00:03.692Z,80.11
2019-03-21T05:01:01.606Z,77.95
2019-03-21T05:02:01.572Z,77.23
2019-03-21T05:03:01.570Z,76.02
2019-03-21T05:04:01.575Z,75.29
2019-03-21T05:05:01.670Z,75.60
2019-03-21T05:06:01.527Z,74.67
2019-03-21T05:07:01.517Z,73.77
2019-03-21T05:08:01.507Z,71.56
2019-03-21T05:09:14.042Z,70.05
2019-03-21T05:10:01.493Z,69.71
2019-03-21T05:11:01.476Z,67.61
2019-03-21T05:12:01.467Z,70.77
2019-03-21T05:13:01.450Z,68.54
2019-03-21T05:14:01.463Z,67.68
2019-03-21T05:15:01.478Z,68.33
2019-03-21T05:16:01.429Z,68.33
2019-03-21T05:17:01.514Z,67.12
2019-03-21T05:18:01.481Z,68.26
2019-03-21T05:19:01.389Z,67.75
2019-03-21T05:20:01.392Z,67.03
2019-03-21T05:21:01.381Z,67.16
2019-03-21T05:22:01.359Z,66.10
2019-03-21T05:23:01.342Z,65.97
2019-03-21T05:24:01.328Z,64.62
2019-03-21T05:25:01.317Z,64.36
2019-03-21T05:26:03.830Z,62.99
2019-03-21T05:27:01.302Z,61.56
2019-03-21T05:28:01.291Z,61.07
2019-03-21T05:29:01.275Z,61.38
2019-03-21T05:30:01.267Z,61.41
2019-03-21T05:31:01.262Z,61.72
2019-03-21T05:32:03.671Z,61.72
2019-03-21T05:33:01.231Z,61.56
2019-03-21T05:34:01.219Z,59.96
2019-03-21T05:35:01.207Z,59.14
2019-03-21T05:36:01.202Z,60.53
2019-03-21T05:37:01.193Z,59.89
2019-03-21T05:38:01.190Z,59.01
2019-03-21T05:39:01.164Z,58.18
2019-03-21T05:40:13.770Z,59.27
2019-03-21T05:41:02.056Z,59.81
2019-03-21T05:42:02.030Z,60.06
2019-03-21T05:43:01.185Z,58.65
2019-03-21T05:44:01.124Z,58.47
2019-03-21T05:45:01.102Z,57.00
2019-03-21T05:46:01.092Z,57.80
2019-03-21T05:47:01.080Z,58.59
2019-03-21T05:48:01.072Z,58.29
2019-03-21T05:49:01.106Z,57.41
2019-03-21T05:50:01.043Z,56.02
2019-03-21T05:51:01.043Z,55.15
2019-03-21T05:52:02.023Z,54.18
2019-03-21T05:53:01.015Z,56.05
2019-03-21T05:54:01.007Z,58.14
2019-03-21T05:55:01.046Z,59.37
2019-03-21T05:56:01.001Z,58.62
2019-03-21T05:57:00.974Z,57.34
2019-03-21T05:58:00.969Z,57.21
2019-03-21T05:59:00.972Z,58.31
2019-03-21T06:00:00.949Z,58.59
2019-03-21T06:01:00.968Z,56.90
2019-03-21T06:02:01.053Z,56.18
2019-03-21T06:03:00.951Z,56.18
2019-03-21T06:04:01.495Z,56.26
2019-03-21T06:05:00.878Z,54.36
2019-03-21T06:06:00.870Z,54.05
2019-03-21T06:07:00.863Z,54.85
2019-03-21T06:08:00.843Z,53.20
2019-03-21T06:09:00.833Z,53.05
2019-03-21T06:10:00.828Z,55.05
2019-03-21T06:11:13.560Z,54.79
2019-03-21T06:12:00.813Z,55.95
2019-03-21T06:13:00.809Z,55.08
2019-03-21T06:14:00.782Z,53.95
2019-03-21T06:15:03.574Z,54.36
2019-03-21T06:16:00.773Z,55.33
2019-03-21T06:17:00.833Z,56.49
2019-03-21T06:18:00.743Z,57.78
2019-03-21T06:19:00.732Z,59.47
2019-03-21T06:20:00.728Z,60.25
2019-03-21T06:21:00.716Z,61.41
2019-03-21T06:22:00.703Z,61.10
2019-03-21T06:23:00.728Z,62.47
2019-03-21T06:24:00.669Z,63.77
2019-03-21T06:25:00.740Z,64.93
2019-03-21T06:26:01.695Z,64.73
2019-03-21T06:27:00.661Z,64.96
2019-03-21T06:28:00.621Z,65.51
2019-03-21T06:29:00.616Z,66.16
2019-03-21T06:30:00.614Z,68.60
2019-03-21T06:31:00.599Z,69.15
2019-03-21T06:32:00.576Z,70.76
2019-03-21T06:33:00.617Z,71.53
2019-03-21T06:34:00.579Z,72.49
2019-03-21T06:35:00.813Z,73.32
2019-03-21T06:36:01.544Z,74.50
2019-03-21T06:37:00.548Z,75.26
2019-03-21T06:38:00.510Z,76.12
2019-03-21T06:39:00.536Z,76.43
2019-03-21T06:40:00.494Z,76.92
2019-03-21T06:41:00.490Z,77.06
2019-03-21T06:42:13.219Z,76.40
2019-03-21T06:43:00.467Z,77.12
2019-03-21T06:44:00.467Z,76.50
2019-03-21T06:45:00.505Z,76.23
2019-03-21T06:46:00.693Z,76.33
2019-03-21T06:47:00.430Z,77.16
2019-03-21T06:48:00.541Z,77.58
2019-03-21T06:49:00.426Z,77.06
2019-03-21T06:50:00.589Z,77.12
2019-03-21T06:51:00.383Z,77.58
2019-03-21T06:52:00.360Z,76.75
2019-03-21T06:53:00.349Z,76.95
2019-03-21T06:54:00.342Z,77.06
2019-03-21T06:55:00.353Z,77.16
2019-03-21T06:56:00.324Z,77.58
2019-03-21T06:57:02.451Z,77.20
2019-03-21T06:58:00.304Z,76.95
2019-03-21T06:59:00.340Z,77.20
2019-03-21T07:00:00.419Z,78.51
2019-03-21T07:01:00.277Z,78.55
2019-03-21T07:02:00.266Z,79.90
2019-03-21T07:03:00.269Z,80.11
2019-03-21T07:04:07.193Z,78.09
2019-03-21T07:05:01.239Z,78.20
2019-03-21T07:06:00.219Z,77.58
2019-03-21T07:07:07.988Z,78.20
2019-03-21T07:08:01.204Z,76.85
2019-03-21T07:09:01.672Z,78.09
2019-03-21T07:10:00.346Z,78.34
2019-03-21T07:11:00.159Z,78.82
2019-03-21T07:12:00.244Z,78.23
2019-03-21T07:13:11.769Z,78.09
2019-03-21T07:14:00.126Z,78.51
2019-03-21T07:15:00.251Z,78.09
2019-03-21T07:16:00.100Z,78.09
2019-03-21T07:17:00.884Z,79.55
2019-03-21T07:18:00.094Z,79.13
2019-03-21T07:19:00.069Z,78.06
2019-03-21T07:20:00.116Z,79.20
2019-03-21T07:21:01.236Z,77.12
2019-03-21T07:22:00.114Z,78.47
2019-03-21T07:23:00.072Z,78.16
2019-03-21T07:24:00.061Z,77.95
2019-03-21T07:25:00.034Z,76.89
2019-03-21T07:25:59.991Z,78.51
2019-03-21T07:26:59.979Z,77.09
2019-03-21T07:27:59.968Z,76.78
2019-03-21T07:28:59.995Z,76.47
2019-03-21T07:30:00.022Z,76.89
2019-03-21T07:30:59.947Z,77.51
2019-03-21T07:31:59.924Z,76.99
2019-03-21T07:32:59.915Z,78.27
2019-03-21T07:33:59.950Z,78.89
2019-03-21T07:34:59.922Z,78.16
2019-03-21T07:35:59.886Z,77.95
2019-03-21T07:36:59.872Z,78.41
2019-03-21T07:37:59.864Z,78.82
2019-03-21T07:38:59.862Z,79.58
2019-03-21T07:39:59.852Z,79.17
2019-03-21T07:41:00.110Z,79.27
2019-03-21T07:42:01.191Z,79.48
2019-03-21T07:43:00.631Z,80.52
2019-03-21T07:44:12.971Z,80.52
2019-03-21T07:44:59.855Z,80.59
2019-03-21T07:45:59.969Z,80.49
2019-03-21T07:47:11.779Z,80.28
2019-03-21T07:48:00.775Z,79.65
2019-03-21T07:49:00.635Z,79.55
2019-03-21T07:49:59.763Z,80.38
2019-03-21T07:51:01.373Z,79.65
2019-03-21T07:52:02.030Z,80.07
2019-03-21T07:53:00.612Z,80.38
2019-03-21T07:53:59.956Z,79.55
2019-03-21T07:54:59.791Z,79.10
2019-03-21T07:55:59.752Z,79.10
2019-03-21T07:57:00.700Z,78.03
2019-03-21T07:57:59.783Z,77.61
2019-03-21T07:58:59.652Z,76.43
2019-03-21T07:59:59.749Z,78.34
2019-03-21T08:00:59.995Z,77.37
2019-03-21T08:01:59.840Z,78.20
2019-03-21T08:02:59.939Z,78.30
2019-03-21T08:04:02.749Z,78.13
2019-03-21T08:05:00.329Z,78.75
2019-03-21T08:05:59.605Z,78.58
2019-03-21T08:06:59.598Z,78.68
2019-03-21T08:07:59.542Z,80.35
2019-03-21T08:08:59.616Z,78.06
2019-03-21T08:09:59.529Z,80.49
2019-03-21T08:10:59.617Z,79.97
2019-03-21T08:12:00.038Z,80.18
2019-03-21T08:12:59.599Z,79.83
2019-03-21T08:13:59.485Z,78.78
2019-03-21T08:15:12.162Z,80.14
2019-03-21T08:15:59.449Z,79.20
2019-03-21T08:16:59.455Z,80.31
2019-03-21T08:17:59.486Z,79.65
2019-03-21T08:18:59.491Z,77.06
2019-03-21T08:19:59.439Z,77.26
2019-03-21T08:21:00.232Z,76.54
2019-03-21T08:21:59.767Z,77.06
2019-03-21T08:22:59.485Z,76.71
2019-03-21T08:24:00.164Z,77.29
2019-03-21T08:25:00.409Z,76.67
2019-03-21T08:25:59.792Z,75.36
2019-03-21T08:26:59.362Z,77.85
2019-03-21T08:27:59.334Z,77.02
2019-03-21T08:28:59.311Z,76.50
2019-03-21T08:29:59.427Z,77.02
2019-03-21T08:30:59.295Z,76.81
2019-03-21T08:31:59.862Z,77.44
2019-03-21T08:33:02.909Z,78.33
2019-03-21T08:34:00.282Z,78.23
2019-03-21T08:34:59.352Z,77.81
2019-03-21T08:35:59.307Z,77.05
2019-03-21T08:36:59.262Z,76.64
2019-03-21T08:37:59.227Z,77.57
2019-03-21T08:38:59.211Z,77.05
2019-03-21T08:39:59.219Z,75.71
2019-03-21T08:40:59.188Z,76.95
2019-03-21T08:41:59.212Z,77.88
2019-03-21T08:42:59.175Z,78.19
2019-03-21T08:43:59.210Z,77.47
2019-03-21T08:44:59.398Z,78.19
2019-03-21T08:46:11.911Z,76.74
2019-03-21T08:46:59.124Z,75.67
2019-03-21T08:47:59.229Z,77.26
2019-03-21T08:48:59.260Z,76.23
2019-03-21T08:49:59.095Z,76.12
2019-03-21T08:51:07.775Z,76.74
2019-03-21T08:52:00.073Z,77.98
2019-03-21T08:52:59.078Z,76.84
2019-03-21T08:53:59.255Z,76.43
2019-03-21T08:54:59.046Z,76.74
2019-03-21T08:55:59.017Z,76.23
2019-03-21T08:56:59.016Z,77.33
2019-03-21T08:57:59.019Z,76.50
2019-03-21T08:58:58.982Z,75.46
2019-03-21T08:59:59.008Z,76.61
2019-03-21T09:00:59.164Z,76.05
2019-03-21T09:01:59.041Z,74.08
2019-03-21T09:02:59.099Z,75.05
2019-03-21T09:03:59.849Z,76.91
2019-03-21T09:04:59.898Z,75.78
2019-03-21T09:05:58.958Z,76.81
2019-03-21T09:06:58.930Z,75.78
2019-03-21T09:07:58.948Z,75.78
2019-03-21T09:08:58.883Z,75.78
2019-03-21T09:09:58.885Z,75.46
2019-03-21T09:10:58.893Z,76.91
2019-03-21T09:11:58.852Z,76.40
2019-03-21T09:12:58.881Z,75.67
2019-03-21T09:13:58.889Z,76.23
2019-03-21T09:14:58.854Z,76.43
2019-03-21T09:15:58.857Z,76.95
2019-03-21T09:17:11.251Z,75.81
2019-03-21T09:17:59.049Z,75.88
2019-03-21T09:18:58.761Z,75.26
2019-03-21T09:19:58.765Z,76.81
2019-03-21T09:20:58.745Z,75.84
2019-03-21T09:22:00.381Z,74.91
2019-03-21T09:22:59.740Z,75.43
2019-03-21T09:23:58.717Z,74.50
2019-03-21T09:24:58.725Z,75.43
2019-03-21T09:25:58.694Z,75.63
2019-03-21T09:26:58.671Z,74.40
2019-03-21T09:28:02.768Z,74.71
2019-03-21T09:28:58.655Z,74.81
2019-03-21T09:29:58.744Z,75.43
2019-03-21T09:30:58.668Z,75.84
2019-03-21T09:31:58.613Z,74.60
2019-03-21T09:32:58.619Z,74.50
2019-03-21T09:33:58.595Z,75.95
2019-03-21T09:34:58.581Z,75.95
2019-03-21T09:36:07.423Z,75.09
2019-03-21T09:36:58.660Z,75.40
2019-03-21T09:37:58.640Z,76.22
2019-03-21T09:38:59.990Z,75.70
2019-03-21T09:39:58.869Z,76.22
2019-03-21T09:40:58.562Z,74.88
2019-03-21T09:42:06.304Z,74.77
2019-03-21T09:42:58.693Z,74.36
2019-03-21T09:43:58.680Z,75.81
2019-03-21T09:44:58.577Z,76.12
2019-03-21T09:45:59.283Z,75.29
2019-03-21T09:48:10.617Z,75.91
2019-03-21T09:49:09.099Z,74.98
2019-03-21T09:50:08.232Z,74.67
2019-03-21T09:51:09.231Z,74.46
2019-03-21T09:52:08.231Z,73.84
2019-03-21T09:53:08.278Z,75.40
2019-03-21T09:54:10.960Z,74.63
2019-03-21T09:55:08.260Z,72.88
2019-03-21T09:56:08.143Z,74.63
2019-03-21T09:57:08.135Z,73.91
2019-03-21T09:58:08.156Z,74.40
2019-03-21T09:59:08.114Z,72.53
2019-03-21T10:00:08.104Z,73.77
2019-03-21T10:01:08.091Z,73.16
2019-03-21T10:02:08.105Z,72.02
2019-03-21T10:03:08.129Z,70.98
2019-03-21T10:04:08.116Z,72.16
2019-03-21T10:05:08.048Z,72.43
2019-03-21T10:06:08.031Z,73.36
2019-03-21T10:07:08.107Z,72.16
2019-03-21T10:08:08.013Z,71.81
2019-03-21T10:09:08.091Z,71.12
2019-03-21T10:10:07.992Z,72.26
2019-03-21T10:11:08.013Z,73.29
2019-03-21T10:12:07.975Z,70.78
2019-03-21T10:13:07.962Z,71.12
2019-03-21T10:14:07.951Z,70.67
2019-03-21T10:15:08.907Z,72.12
2019-03-21T10:16:08.000Z,70.43
2019-03-21T10:17:07.915Z,70.33
2019-03-21T10:18:14.926Z,70.75
2019-03-21T10:19:07.896Z,70.95
2019-03-21T10:20:07.998Z,72.16
2019-03-21T10:21:07.958Z,70.75
2019-03-21T10:22:07.989Z,70.40
2019-03-21T10:23:07.844Z,69.06
2019-03-21T10:24:07.843Z,69.89
2019-03-21T10:25:07.830Z,70.30
2019-03-21T10:26:07.867Z,68.65
2019-03-21T10:27:09.129Z,69.20
2019-03-21T10:28:07.799Z,70.23
2019-03-21T10:29:07.802Z,68.54
2019-03-21T10:30:07.774Z,67.10
2019-03-21T10:31:09.232Z,68.03
2019-03-21T10:32:14.087Z,67.82
2019-03-21T10:33:09.100Z,67.72
2019-03-21T10:34:07.864Z,69.17
2019-03-21T10:35:07.734Z,69.20
2019-03-21T10:36:07.731Z,68.06
2019-03-21T10:37:07.728Z,70.33
2019-03-21T10:38:07.693Z,68.54
2019-03-21T10:39:07.727Z,69.06
2019-03-21T10:40:07.694Z,69.17
2019-03-21T10:41:07.713Z,68.41
2019-03-21T10:42:08.640Z,66.97
2019-03-21T10:43:10.196Z,68.03
2019-03-21T10:44:07.645Z,69.99
2019-03-21T10:45:07.716Z,68.82
2019-03-21T10:46:07.645Z,69.44
2019-03-21T10:47:07.690Z,67.79
2019-03-21T10:48:07.614Z,67.76
2019-03-21T10:49:18.907Z,67.66
2019-03-21T10:50:07.559Z,67.03
2019-03-21T10:51:07.545Z,68.38
2019-03-21T10:52:07.585Z,67.66
2019-03-21T10:53:07.681Z,66.94
2019-03-21T10:54:07.500Z,66.83
2019-03-21T10:55:07.501Z,67.90
2019-03-21T10:56:07.526Z,67.48
2019-03-21T10:57:07.551Z,67.45
2019-03-21T10:58:07.469Z,66.86
2019-03-21T10:59:07.492Z,67.58
2019-03-21T11:00:08.193Z,68.69
2019-03-21T11:01:07.442Z,68.59
2019-03-21T11:02:07.764Z,66.83
2019-03-21T11:03:07.522Z,67.55
2019-03-21T11:04:07.407Z,66.42
2019-03-21T11:05:07.572Z,67.76
2019-03-21T11:06:09.082Z,67.24
2019-03-21T11:08:17.952Z,66.52
2019-03-21T11:09:27.827Z,67.14
2019-03-21T11:10:19.324Z,67.76
2019-03-21T11:11:31.591Z,67.03
2019-03-21T11:12:19.799Z,66.18
2019-03-21T11:13:22.282Z,66.25
2019-03-21T11:14:18.030Z,65.05
2019-03-21T11:15:17.995Z,65.33
2019-03-21T11:16:18.192Z,64.92
2019-03-21T11:17:19.244Z,64.19
2019-03-21T11:18:17.895Z,65.12
2019-03-21T11:19:18.997Z,66.39
2019-03-21T11:20:18.230Z,64.50
2019-03-21T11:21:17.854Z,64.64
2019-03-21T11:22:17.808Z,64.71
2019-03-21T11:23:17.786Z,65.84
2019-03-21T11:24:17.847Z,65.36
2019-03-21T11:25:17.859Z,65.25
2019-03-21T11:26:17.767Z,65.88
2019-03-21T11:27:17.773Z,65.56
2019-03-21T11:28:17.922Z,65.43
2019-03-21T11:29:17.755Z,64.84
2019-03-21T11:30:17.704Z,64.64
2019-03-21T11:31:17.695Z,64.32
2019-03-21T11:32:17.681Z,64.32
2019-03-21T11:33:17.675Z,64.84
2019-03-21T11:34:17.694Z,64.95
2019-03-21T11:35:17.721Z,65.46
2019-03-21T11:36:17.639Z,64.74
2019-03-21T11:37:17.630Z,65.46
2019-03-21T11:38:17.632Z,64.50
2019-03-21T11:39:17.607Z,64.02
2019-03-21T11:40:32.945Z,63.60
2019-03-21T11:41:17.669Z,65.05
2019-03-21T11:42:17.588Z,64.53
2019-03-21T11:43:17.627Z,64.43
2019-03-21T11:44:17.617Z,64.15
2019-03-21T11:45:17.555Z,64.95
2019-03-21T11:46:17.536Z,64.67
2019-03-21T11:47:17.552Z,64.32
2019-03-21T11:48:17.574Z,64.15
2019-03-21T11:49:17.514Z,65.91
2019-03-21T11:50:17.878Z,64.84
2019-03-21T11:51:17.686Z,64.12
2019-03-21T11:52:18.422Z,65.36
2019-03-21T11:53:17.558Z,64.22
2019-03-21T11:54:18.530Z,63.92
2019-03-21T11:55:17.488Z,63.81
2019-03-21T11:56:17.448Z,63.95
2019-03-21T11:57:17.450Z,64.74
2019-03-21T11:58:17.896Z,64.02
2019-03-21T11:59:17.390Z,63.71
2019-03-21T12:00:18.430Z,63.50
2019-03-21T12:01:17.460Z,63.81
2019-03-21T12:02:26.632Z,63.92
2019-03-21T12:03:18.353Z,62.88
2019-03-21T12:04:17.364Z,63.60
2019-03-21T12:05:17.339Z,62.26
2019-03-21T12:06:17.320Z,62.68
2019-03-21T12:07:17.312Z,63.71
2019-03-21T12:08:17.356Z,62.75
2019-03-21T12:09:17.322Z,63.57
2019-03-21T12:10:17.269Z,62.37
2019-03-21T12:11:29.822Z,63.40
2019-03-21T12:12:17.267Z,62.54
2019-03-21T12:13:17.252Z,62.65
2019-03-21T12:14:17.260Z,61.61
2019-03-21T12:15:17.210Z,61.93
2019-03-21T12:16:17.310Z,62.13
2019-03-21T12:17:17.436Z,61.93
2019-03-21T12:18:17.181Z,61.93
2019-03-21T12:19:17.178Z,61.93
2019-03-21T12:20:17.175Z,61.72
2019-03-21T12:21:17.150Z,61.31
2019-03-21T12:22:17.150Z,61.72
2019-03-21T12:23:17.166Z,61.93
2019-03-21T12:24:17.163Z,61.82
2019-03-21T12:25:17.102Z,61.82
2019-03-21T12:26:17.098Z,61.21
2019-03-21T12:27:17.085Z,61.41
2019-03-21T12:28:17.075Z,61.61
2019-03-21T12:29:17.095Z,61.72
2019-03-21T12:30:17.058Z,60.89
2019-03-21T12:31:17.048Z,61.21
2019-03-21T12:32:17.031Z,61.52
2019-03-21T12:33:17.028Z,60.97
2019-03-21T12:34:17.014Z,61.00
2019-03-21T12:35:17.016Z,61.00
2019-03-21T12:36:16.993Z,59.97
2019-03-21T12:37:16.999Z,59.33
2019-03-21T12:38:16.964Z,59.84
2019-03-21T12:39:17.896Z,59.84
2019-03-21T12:40:16.954Z,59.53
2019-03-21T12:41:16.929Z,58.70
2019-03-21T12:42:28.866Z,58.70
2019-03-21T12:43:16.908Z,59.01
2019-03-21T12:44:16.899Z,58.40
2019-03-21T12:45:16.935Z,57.26
2019-03-21T12:46:16.895Z,58.50
2019-03-21T12:47:16.882Z,57.70
2019-03-21T12:48:16.860Z,57.78
2019-03-21T12:49:16.862Z,58.11
2019-03-21T12:50:16.835Z,57.68
2019-03-21T12:51:16.830Z,57.39
2019-03-21T12:52:16.813Z,57.09
2019-03-21T12:53:16.812Z,57.50
2019-03-21T12:54:16.788Z,57.50